Tiempo atmosférico en la estación meteorológica de Santiago de Compostela Aeropuerto, A Coruña (370 m.)



Fecha
DESCASC
Temp. máxima en grados centígrados (hora)
DESCASC
Temp. mínima en grados centígrados (hora)
DESCASC
Temp. media en grados centígrados
DESCASC
Racha de viento máxima en m/sg (hora)
DESCASC
Velocidad máxima media en intervalos de 10 minutos(hora)
DESCASC
Precipitaciones diarias en mm
DESCASC
Precipitaciones de 00:00 a 06:00 en mm
DESCASC
Precipitaciones de 06:00 a 12:00 en mm
DESCASC
Precipitaciones de 12:00 a 18:00 en mm
DESCASC
Precipitaciones de 18:00 a 24:00 en mm
DESCASC
08-12-2019 12.7 (13:50) 6.2 (20:10) 9.4 9.17 (15:00) 6.94 (15:00) 5.1 0.7 4.3 0.1 0
07-12-2019 11 (15:20) 6.1 (01:30) 8.5 6.11 (19:00) 3.89 (22:10) 0.3 0 0 0.1 0.2
06-12-2019 12.6 (14:20) 4.2 (09:30) 8.4 6.11 (09:20) 3.06 (09:10) 0 0 0 0 0
05-12-2019 13 (14:50) 4.5 (00:00) 8.8 9.72 (11:00) 4.44 (11:30) 0 0 0 0 0
04-12-2019 10.5 (14:50) 0 (00:00) 5.3 6.67 (22:00) 4.72 (20:40) 0 0 0 0 0
03-12-2019 10.4 (15:40) 1.6 (00:00) 6 6.67 (12:20) 3.06 (12:10) 0 0 0 0 0
02-12-2019 10.2 (14:20) 4.5 (00:00) 7.3 12.5 (14:00) 5.28 (02:50) 0 0 0 0 0
01-12-2019 11.5 (14:50) 6.4 (00:00) 9 11.67 (11:20) 5.83 (16:00) 19.6 19 0 0.4 0.2
30-11-2019 14.2 (01:30) 7.8 (00:00) 11 15 (01:50) 8.89 (02:10) 29.5 14.1 0.6 0.4 14.4
29-11-2019 14.5 (16:10) 7.8 (00:00) 11.2 10.28 (23:50) 5.83 (23:59) 1.8 0 0 0 1.8
28-11-2019 13.9 (17:00) 9.8 (00:00) 11.8 15 (16:30) 8.33 (17:00) 24 0.1 0.1 23.3 0.5
27-11-2019 11.7 (22:10) 9.6 (00:00) 10.7 12.78 (17:10) 7.22 (00:40) 13.6 2.3 0.4 7.5 3.4
26-11-2019 14.6 (03:20) 9.7 (00:00) 12.2 21.67 (16:30) 11.67 (16:30) 39.7 6.5 0.2 25.2 7.8
25-11-2019 12.9 (21:40) 10.6 (00:00) 11.8 12.5 (20:20) 7.78 (20:20) 3.9 1.1 0.6 0.3 1.9
24-11-2019 13.5 (21:50) 5.7 (00:00) 9.6 16.94 (18:30) 9.44 (18:20) 12.7 0 0 10.2 2.5
23-11-2019 11.9 (13:50) 6.2 (00:00) 9 11.67 (01:00) 6.94 (01:00) 4.1 1.7 0.8 1.5 0.1
22-11-2019 13 (10:10) 7.2 (00:00) 10.1 18.06 (10:40) 11.94 (10:40) 40 7.4 20.2 5.4 7
21-11-2019 11.6 (14:10) 5.5 (00:00) 8.6 11.39 (14:30) 5.83 (12:50) 8.1 1.1 1.4 5.1 0.5
20-11-2019 8.2 (15:40) 4 (00:00) 6.1 7.78 (12:50) 5 (16:10) 7.1 0 0.8 2.3 4
19-11-2019 8.4 (16:00) 2.7 (00:00) 5.5 6.67 (17:00) 3.61 (16:00) 6.4 0 0.6 4.4 1.4
18-11-2019 11.1 (15:50) 4.4 (00:00) 7.8 5.83 (09:20) 3.61 (02:40) 0.7 0.4 0.3 0 0
17-11-2019 10.7 (15:40) 5.6 (00:00) 8.1 11.39 (20:30) 6.39 (16:00) 11.8 0.7 3.6 0.5 7
16-11-2019 8.1 (14:10) 1.6 (00:00) 4.9 8.33 (21:10) 5 (23:50) 0.8 0.7 0 0 0.1
15-11-2019 8.3 (13:20) 3.1 (00:00) 5.7 14.44 (02:50) 11.11 (02:50) 14.9 2 1.9 4 7
14-11-2019 9.4 (12:30) 3.8 (00:00) 6.6 24.17 (13:00) 15.28 (13:00) 17.2 2.8 4.5 9.4 0.5
13-11-2019 14 (00:00) 8.3 (00:00) 11.2 12.78 (22:40) 8.89 (22:40) 13.8 8.5 0.1 0 5.2
12-11-2019 14.1 (22:50) 6.3 (00:00) 10.2 12.5 (15:40) 6.67 (15:20) 22 0 1.2 12.5 8.3

Gráficas

Temp. máximas Temp. mínimas Temp. medias Precipitaciones Rachas de viento máximas Velocidades máximas media en intervalos de 10 minutos

Datos horarios

Fecha y hora oficial Temperatura (ºC) Velocidad del viento (km/h) Dirección del viento Racha (km/h) Dirección de racha Precipitación (mm) Presión (hPa) Tendencia (hPa) Humedad (%)
2019-12-11 23:00:00 8.3 14 Oeste 32 Sudoeste 0.1 982.2 -0.9 96
2019-12-11 22:00:00 8.3 13 Sudoeste 22 Sudoeste 0 982.4 -0.8 94
2019-12-11 21:00:00 8.4 14 Oeste 28 Oeste 0.2 982.9 -0.4 94
2019-12-11 20:00:00 8.3 13 Sudoeste 30 Oeste 0 983.1 -0.2 95
2019-12-11 19:00:00 8.1 10 Sudoeste 26 Oeste 0 983.2 0.1 94
2019-12-11 18:00:00 8.5 14 Oeste 24 Oeste 0 983.3 -0.1 92
2019-12-11 17:00:00 8.6 15 Oeste 37 Oeste 0.5 983.3 -0.6 94
2019-12-11 16:00:00 8.8 15 Oeste 45 Noroeste 0.3 983.1 -1.2 92
2019-12-11 15:00:00 8.5 14 Sudoeste 32 Oeste 0 983.4 -1.7 94
2019-12-11 14:00:00 8.6 17 Sudoeste 30 Sudoeste 0 983.9 -0.9 91
2019-12-11 13:00:00 8.7 12 Sudoeste 24 Oeste 0.3 984.3 0 88
2019-12-11 12:00:00 8.5 14 Sudoeste 21 Sudoeste 0 985.1 1.5 81
2019-12-11 11:00:00 7.5 8 Oeste 15 Oeste 0 984.8 1.5 85
2019-12-11 10:00:00 6.2 8 Oeste 17 Oeste 0 984.3 1.8 90
2019-12-11 09:00:00 5.1 7 Oeste 15 Oeste 0 983.6 1.8 92
2019-12-11 08:00:00 5.1 8 Oeste 15 Noroeste 0 983.3 1.8 96
2019-12-11 07:00:00 5.5 8 Oeste 13 Noroeste 0 982.5 1.3 100
2019-12-11 06:00:00 6.4 9 Noroeste 18 Noroeste 0 981.8 1.5 100
2019-12-11 05:00:00 6.6 12 Noroeste 17 Norte 0 981.5 2 100
2019-12-11 04:00:00 6.7 14 Norte 37 Norte 1.6 981.2 1.9 99
2019-12-11 03:00:00 7.6 28 Norte 39 Norte 1.6 980.3 1.7 100
2019-12-11 02:00:00 8 19 Norte 37 Norte 1.4 979.5 0.3 99
2019-12-11 01:00:00 10.2 14 Oeste 28 Sur 1.8 979.3 0.3 100
2019-12-11 00:00:00 9.8 17 Sur 32 Sudoeste 1.2 978.6 -1.3 100
2019-12-10 23:00:00 9.6 15 Sudoeste 39 Sudoeste 0.1 979.2 -1.2 100
2019-12-10 22:00:00 9.2 24 Sudoeste 41 Sur 0 979 -1.7 100
2019-12-10 21:00:00 8.8 19 Sur 35 Sudoeste 0 979.9 -1.1 98
2019-12-10 20:00:00 9 15 Sur 28 Sur 0 980.4 -0.8 91
2019-12-10 19:00:00 9.1 15 Sur 26 Sur 0 980.7 -0.5 83
2019-12-10 18:00:00 9.1 13 Sur 26 Sudoeste 0 981 -1.3 83
2019-12-10 17:00:00 9.2 8 Sudoeste 28 Sudoeste 0 981.2 -1.8 85
2019-12-10 16:00:00 9.4 13 Sur 32 Sudoeste 0 981.2 -2.2 82
2019-12-10 15:00:00 9.5 14 Sudoeste 35 Sudoeste 0 982.3 -2 78
2019-12-10 14:00:00 9.8 18 Sudoeste 28 Sudoeste 0 983 -1.5 73
2019-12-10 13:00:00 8.8 7 Sur 13 Sur 0 983.4 -1.4 80
2019-12-10 12:00:00 8.2 9 Sur 15 Sur 0 984.3 -0.6 83
2019-12-10 11:00:00 7.3 8 Sur 13 Sur 0 984.5 -0.6 80
2019-12-10 10:00:00 4.7 9 Sur 11 Sur 0 984.8 -0.3 94
2019-12-10 09:00:00 3.4 8 Sur 11 Sudeste 0 984.9 -0.2 97
2019-12-10 08:00:00 4.6 7 Sur 9 Sur 0 985.1 -0.6 88
2019-12-10 07:00:00 4.4 3 Sur 11 Sur 0 985.1 -1.2 92
2019-12-10 06:00:00 4.4 9 Sur 13 Sur 0 985.1 -1.5 93
2019-12-10 05:00:00 4.6 7 Sur 11 Sudeste 0 985.7 -1.8 94
2019-12-10 04:00:00 4 6 Sur 11 Sudeste 0 986.3 -1.9 100
2019-12-10 03:00:00 3.9 5 Sudeste 9 Sudeste 0 986.6 -1.7 99
2019-12-10 02:00:00 5 -- -- -- -- 0 987.5 -1.1 100
2019-12-10 01:00:00 5.3 4 Sur 9 Sudoeste 0 988.2 -0.5 100
2019-12-10 00:00:00 5.5 5 Sudeste 8 Sudeste 0 988.3 -0.4 100
2019-12-09 23:00:00 5.6 3 Sur 5 Sur 0 988.6 -0.3 100
2019-12-09 22:00:00 5.9 2 Oeste 5 Noroeste 0 988.7 0.1 100
2019-12-09 21:00:00 6.3 0 Calma 8 Oeste 0 988.7 0.6 100
2019-12-09 20:00:00 5.6 3 Oeste 5 Oeste 0 988.9 0.3 98
2019-12-09 19:00:00 7.4 0 Calma 11 Sudeste 0 988.6 0.2 97
2019-12-09 18:00:00 8.3 6 Sudeste 13 Sudeste 0 988.1 -0.5 96
2019-12-09 17:00:00 10.2 2 Sudeste 8 Este 0 988.6 -0.4 92
2019-12-09 16:00:00 10.6 2 Este 9 Sur 0 988.4 -1.2 92
2019-12-09 15:00:00 10.2 7 Sur 13 Sudoeste 0 988.6 -1.5 91
2019-12-09 14:00:00 10.2 6 Sur 11 Sur 0 989 -0.6 88
2019-12-09 13:00:00 9.7 5 Sur 9 Sur 0 989.6 0.4 91
2019-12-09 12:00:00 8.6 3 Sur 9 Sudoeste 0 990.1 1.6 89
2019-12-09 11:00:00 8.1 2 Sudeste 13 Sur 0 989.6 1.3 94
2019-12-09 10:00:00 6.9 3 Sur 5 Sur 0 989.2 1.3 98
2019-12-09 09:00:00 6.2 4 Sudeste 9 Sur 0 988.5 1.1 97
2019-12-09 08:00:00 6.1 5 Sur 9 Sur 0 988.3 0.5 100
2019-12-09 07:00:00 5.9 5 Sur 11 Sur 0 987.9 0.4 100
2019-12-09 06:00:00 5.9 9 Sur 11 Sur 0 987.4 0.4 100
2019-12-09 05:00:00 6 0 Calma 9 Sur 0 987.8 0.6 100
2019-12-09 04:00:00 5.8 8 Sur 9 Sur 0 987.5 0.3 100
2019-12-09 03:00:00 6.1 2 Sudeste 9 Sur 0 987 0.3 100
2019-12-09 02:00:00 6.4 5 Sur 8 Sur 0 987.2 0.7 99
2019-12-09 01:00:00 7.6 3 Sur -- -- 0 987.2 0.9 93
2019-12-09 00:00:00 7.2 3 Noroeste 5 Oeste 0 986.7 1 96
2019-12-08 23:00:00 7.5 4 Oeste -- -- 0 986.5 1.4 95
2019-12-08 22:00:00 8.8 4 Noroeste 13 Norte 0 986.3 1.6 90
2019-12-08 21:00:00 8.5 4 Noroeste 11 Norte 0 985.7 1.4 91
2019-12-08 20:00:00 6.9 0 Calma 11 Nordeste 0 985.1 1.8 95
2019-12-08 19:00:00 8.7 8 Norte 21 Norte 0 984.7 1.9 90
2019-12-08 18:00:00 8.8 13 Norte 18 Norte 0 984.3 1.8 92
2019-12-08 17:00:00 10.9 17 Norte 26 Norte 0 983.3 1.1 89
2019-12-08 16:00:00 11.5 17 Norte 30 Norte 0 982.8 0.5 90
2019-12-08 15:00:00 11 25 Norte 33 Norte 0.1 982.5 0.4 100
2019-12-08 14:00:00 12.4 5 Oeste 17 Sudoeste 0 982.2 0.6 100
2019-12-08 13:00:00 12.1 12 Sudoeste 26 Sudoeste 0 982.3 1.4 100
2019-12-08 12:00:00 12 18 Sudoeste 30 Sudoeste 0 982.1 1.7 100
2019-12-08 11:00:00 12 17 Sudoeste 32 Oeste 0.1 981.6 2 100
2019-12-08 10:00:00 11.8 5 Oeste 18 Oeste 2.4 980.9 1.2 100
2019-12-08 09:00:00 11.5 12 Oeste 22 Sudoeste 1.4 980.4 0.7 100
2019-12-08 08:00:00 11.4 13 Sur 24 Sur 0.1 979.6 -0.4 100
2019-12-08 07:00:00 11.4 12 Sur 26 Sur 0.3 979.7 -0.7 100
2019-12-08 06:00:00 11.3 12 Sur 24 Sur 0.7 979.7 -0.4 100
2019-12-08 05:00:00 11.3 12 Sur 24 Sudoeste 0 980 -0.4 100
2019-12-08 04:00:00 11.2 10 Sudoeste 28 Sudoeste 0 980.4 -0.3 100
2019-12-08 03:00:00 11.1 13 Sudoeste 22 Sudoeste 0 980.1 -0.7 100
2019-12-08 02:00:00 11.1 13 Sudoeste 21 Sur 0 980.4 -0.2 100
2019-12-08 01:00:00 11 9 Sur 18 Sur 0 980.7 0.2 100
2019-12-08 00:00:00 11 10 Sur 22 Sur 0.1 980.8 0.3 100
2019-12-07 23:00:00 10.9 12 Sur 22 Sudoeste 0 980.6 0.3 100
2019-12-07 22:00:00 10.9 11 Sur 21 Sur 0 980.5 0.2 100
2019-12-07 21:00:00 10.9 12 Sur 22 Sur 0.1 980.5 0.4 100
2019-12-07 20:00:00 10.9 12 Sur 21 Sur 0 980.3 0.2 100
2019-12-07 19:00:00 10.9 13 Sur 22 Sur 0 980.3 0.7 100
2019-12-07 18:00:00 10.9 13 Sur 21 Sur 0 980.1 0.4 100
2019-12-07 17:00:00 10.9 10 Sudoeste 17 Sur 0 980.1 -0.1 100
2019-12-07 16:00:00 11 11 Sur 18 Sur 0.1 979.6 -1.2 100
2019-12-07 15:00:00 10.7 8 Sur 13 Sudoeste 0 979.7 -1.7 100
2019-12-07 14:00:00 9.6 7 Sur 11 Sur 0 980.2 -1.2 100
2019-12-07 13:00:00 9.1 6 Sur 11 Sur 0 980.8 -0.2 100
2019-12-07 12:00:00 8.6 8 Sur 13 Sur 0 981.4 1 100
2019-12-07 11:00:00 8.1 7 Sur 11 Sur 0 981.4 1.1 100
2019-12-07 10:00:00 7.4 9 Sur 11 Sur 0 981 1.2 100
2019-12-07 09:00:00 7.2 4 Sudeste 8 Sudeste 0 980.4 0.5 100
2019-12-07 08:00:00 6.9 5 Sur 11 Sur 0 980.3 0.2 100
2019-12-07 07:00:00 6.6 4 Sur 5 Sudeste 0 979.8 -0.6 100
2019-12-07 06:00:00 6.7 2 Sur 9 Sudeste 0 979.9 -0.2 100
2019-12-07 05:00:00 7 6 Sur 9 Sur 0 980.1 -0.1 100
2019-12-07 04:00:00 6.9 2 Sudoeste 5 Sudeste 0 980.4 -0.2 100
2019-12-07 03:00:00 7 7 Sur 9 Sur 0 980.1 -0.9 100
2019-12-07 02:00:00 6.8 0 Calma 8 Sur 0 980.2 -0.7 100
2019-12-07 01:00:00 6.4 5 Sur 9 Sur 0 980.6 0 100
2019-12-07 00:00:00 7.1 6 Sur 13 Sur 0 981 0.4 100
2019-12-06 23:00:00 7.2 5 Sur 8 Sur 0 980.9 0.8 100
2019-12-06 22:00:00 7.4 0 Calma 11 Noroeste 0 980.6 1.3 100
2019-12-06 21:00:00 6.6 5 Noroeste -- -- 0 980.6 1 100
2019-12-06 20:00:00 7.5 4 Noroeste 8 Sur 0 980.1 0.8 98
2019-12-06 19:00:00 8.7 6 Sur 9 Sur 0 979.3 0.1 97
2019-12-06 18:00:00 9.7 2 Oeste 8 Noroeste 0 979.6 0.4 92
2019-12-06 17:00:00 11.5 3 Noroeste 11 Norte 0 979.3 -0.9 84
2019-12-06 16:00:00 11.6 8 Noroeste 15 Noroeste 0 979.2 -1.6 81
2019-12-06 15:00:00 12.3 4 Sur 8 Sur 0 979.2 -1.4 78
2019-12-06 14:00:00 10.8 3 Oeste 9 Noroeste 0 980.2 -0.7 82
2019-12-06 13:00:00 8.4 8 Noroeste 11 Noroeste 0 980.8 0.1 93
2019-12-06 12:00:00 7.2 5 Sur 13 Sur 0 980.6 0.8 94
2019-12-06 11:00:00 6.9 6 Sur 11 Noroeste 0 980.9 1.7 98
2019-12-06 10:00:00 5.3 2 Noroeste 22 Oeste 0 980.7 1.5 100
2019-12-06 09:00:00 4.8 9 Oeste 13 Oeste 0 979.8 0.8 100
2019-12-06 08:00:00 5.7 5 Sur 9 Sudeste 0 979.2 0.3 100
2019-12-06 07:00:00 4.7 0 Calma 13 Oeste 0 979.2 0 100
2019-12-06 06:00:00 5.5 4 Oeste 9 Noroeste 0 979 -0.4 100
2019-12-06 05:00:00 5.6 2 Sudeste 9 Sudeste 0 978.9 -0.6 100
2019-12-06 04:00:00 5.9 0 Calma 8 Nordeste 0 979.2 -0.6 100
2019-12-06 03:00:00 6.5 4 Nordeste 15 Norte 0 979.4 -0.6 100
2019-12-06 02:00:00 5.7 2 Norte 9 Norte 0 979.5 -0.2 100
2019-12-06 01:00:00 6.4 3 Norte 8 Norte 0 979.8 0.2 100
2019-12-06 00:00:00 6.3 0 Calma 8 Norte 0 980 0.8 100
2019-12-05 23:00:00 5.1 3 Noroeste 8 Noroeste 0 979.7 0.7 100
2019-12-05 22:00:00 5.6 4 Norte 8 Noroeste 0 979.6 0.8 99
2019-12-05 21:00:00 6.8 4 Norte 11 Norte 0 979.2 0.8 97
2019-12-05 20:00:00 8 5 Norte 15 Norte 0 979 0.8 97
2019-12-05 19:00:00 8.3 6 Norte 21 Norte 0 978.8 0.7 96
2019-12-05 18:00:00 9.5 6 Norte 18 Norte 0 978.4 0.4 92
2019-12-05 17:00:00 11.2 6 Norte 26 Norte 0 978.2 -0.3 85
2019-12-05 16:00:00 12.6 7 Nordeste 26 Nordeste 0 978.1 -1 74
2019-12-05 15:00:00 12.8 8 Nordeste 26 Nordeste 0 978 -1.1 73
2019-12-05 14:00:00 11.8 10 Norte 32 Norte 0 978.5 -0.1 82
2019-12-05 13:00:00 10.8 11 Norte 28 Norte 0 979.1 1.2 85
2019-12-05 12:00:00 10.3 11 Norte 32 Norte 0 979.1 1.6 86
2019-12-05 11:00:00 9.1 14 Norte 35 Norte 0 978.6 1.4 90
2019-12-05 10:00:00 8.2 14 Norte 30 Norte 0 977.9 1.1 91
2019-12-05 09:00:00 7.3 8 Norte 18 Norte 0 977.5 1 95
2019-12-05 08:00:00 7.2 12 Norte 22 Norte 0 977.2 0.9 93
2019-12-05 07:00:00 6.6 7 Norte 22 Norte 0 976.8 0.5 93
2019-12-05 06:00:00 5.6 8 Norte 18 Norte 0 976.5 0.4 97
2019-12-05 05:00:00 5.6 6 Norte 24 Norte 0 976.3 0.3 95
2019-12-05 04:00:00 5.4 8 Norte 21 Norte 0 976.3 0.1 96
2019-12-05 03:00:00 5.7 12 Norte 21 Norte 0 976.1 0.7 98
2019-12-05 02:00:00 4.8 4 Norte 18 Norte 0 976 0.7 96
2019-12-05 01:00:00 4.9 10 Norte 26 Norte 0 976.2 1.2 92
2019-12-05 00:00:00 4.8 10 Norte 18 Norte 0 975.4 1 87
2019-12-04 23:00:00 4.4 5 Norte 22 Norte 0 975.3 1.7 86
2019-12-04 22:00:00 5.3 12 Norte 24 Norte 0 975 2.1 84
2019-12-04 21:00:00 4.4 13 Norte 21 Norte 0 974.4 2.2 87
2019-12-04 20:00:00 5.5 10 Norte 17 Norte 0 973.6 1.8 80
2019-12-04 19:00:00 5 12 Norte 17 Norte 0 972.9 1.4 91
2019-12-04 18:00:00 6.9 6 Norte 18 Norte 0 972.2 1.1 80
2019-12-04 17:00:00 8.6 10 Norte 22 Norte 0 971.8 0.8 72
2019-12-04 16:00:00 9.4 12 Norte 22 Norte 0 971.5 0.2 67
2019-12-04 15:00:00 10.2 9 Norte 18 Norte 0 971.1 -0.3 67
2019-12-04 14:00:00 9.1 9 Norte 15 Noroeste 0 971 -0.1 72
2019-12-04 13:00:00 6.4 8 Noroeste 11 Noroeste 0 971.3 0.5 80
2019-12-04 12:00:00 6.3 3 Norte 13 Este 0 971.4 1 73
2019-12-04 11:00:00 4.8 0 Calma 11 Este 0 971.1 1.2 77
2019-12-04 10:00:00 2.6 2 Este 8 Este 0 970.8 1.1 86
2019-12-04 09:00:00 1.1 0 Calma 8 Sudeste 0 970.4 0.9 92
2019-12-04 08:00:00 1.3 4 Sudeste 9 Sudeste 0 969.9 0.2 90
2019-12-04 07:00:00 0.6 4 Sudeste 15 Sudeste 0 969.7 -0.4 95
2019-12-04 06:00:00 2.2 8 Sudeste 15 Sudeste 0 969.5 -0.9 84
2019-12-04 05:00:00 1.4 0 Calma 15 Sudeste 0 969.7 -0.8 90
2019-12-04 04:00:00 2.3 9 Sudeste 13 Sudeste 0 970.1 -0.7 87
2019-12-04 03:00:00 2.7 8 Sudeste 13 Sur 0 970.4 -0.7 86
2019-12-04 02:00:00 1.5 6 Sudeste 11 Sur 0 970.5 -0.7 95
2019-12-04 01:00:00 1.5 5 Sudeste 9 Sur 0 970.8 -0.6 97
2019-12-04 00:00:00 1.8 4 Este 9 Sudeste 0 971.1 -0.5 96
2019-12-03 23:00:00 2.4 3 Sudeste 11 Este 0 971.2 -0.4 96
2019-12-03 22:00:00 3.1 3 Sudeste 11 Sudeste 0 971.4 0 94
2019-12-03 21:00:00 3.7 5 Sudeste 11 Sudeste 0 971.6 -0.1 91
2019-12-03 20:00:00 5 3 Sudeste 13 Sudeste 0 971.6 -0.3 87
2019-12-03 19:00:00 5.8 0 Calma 4 Este 0 971.4 -0.7 87
2019-12-03 18:00:00 7.3 0 Calma 4 Norte 0 971.7 -1 77
2019-12-03 17:00:00 9.7 0 Calma 11 Este 0 971.9 -1.6 67
2019-12-03 16:00:00 10 6 Este 13 Este 0 972.1 -2.3 61
2019-12-03 15:00:00 10 5 Este 17 Sudeste 0 972.7 -2.7 59
2019-12-03 14:00:00 9.2 7 Este 22 Nordeste 0 973.5 -2.1 63
2019-12-03 13:00:00 8.1 8 Sudeste 24 Sudeste 0 974.4 -1.4 67
2019-12-03 12:00:00 7 9 Este 22 Sudeste 0 975.4 -0.7 72
2019-12-03 11:00:00 5 8 Este 21 Este 0 975.6 -0.5 79
2019-12-03 10:00:00 3.4 5 Sudeste 13 Sudeste 0 975.8 -0.3 87
2019-12-03 09:00:00 2 5 Sudeste 13 Este 0 976.1 -0.2 91
2019-12-03 08:00:00 2.3 4 Sudeste 13 Este 0 976.1 -0.4 89
2019-12-03 07:00:00 2.2 0 Calma 9 Este 0 976.1 -1 90
2019-12-03 06:00:00 2.4 2 Sudeste 9 Este 0 976.3 -1.3 87
2019-12-03 05:00:00 3 0 Calma 11 Nordeste 0 976.5 -1.5 84
2019-12-03 04:00:00 3.3 2 Sudeste 13 Nordeste 0 977.1 -1.5 82
2019-12-03 03:00:00 4.3 5 Este 18 Este 0 977.6 -1.5 78
2019-12-03 02:00:00 3.9 5 Norte 15 Nordeste 0 978 -1 81
2019-12-03 01:00:00 4.5 3 Este 18 Este 0 978.6 -0.6 79
2019-12-03 00:00:00 4.7 4 Norte 18 Nordeste 0 979.1 0 81
2019-12-02 23:00:00 4.7 5 Nordeste 15 Norte 0 979 0.3 85
2019-12-02 22:00:00 5.7 5 Nordeste 18 Norte 0 979.2 0.8 82
2019-12-02 21:00:00 5.9 5 Norte 17 Este 0 979.1 1.1 81
2019-12-02 20:00:00 6.6 6 Este 30 Este 0 978.7 0.3 80
2019-12-02 19:00:00 6.8 6 Nordeste 33 Norte 0 978.4 -0.1 83
2019-12-02 18:00:00 7.7 12 Nordeste 30 Este 0 978 -0.1 77
2019-12-02 17:00:00 9.2 10 Nordeste 35 Este 0 978.4 -0.1 71
2019-12-02 16:00:00 9 9 Nordeste 33 Nordeste 0 978.5 -0.3 70
2019-12-02 15:00:00 9.8 12 Nordeste 35 Norte 0 978.1 -1.4 70
2019-12-02 14:00:00 9.8 10 Nordeste 45 Nordeste 0 978.5 -0.9 72
2019-12-02 13:00:00 9.8 14 Nordeste 42 Nordeste 0 978.8 -0.1 76
2019-12-02 12:00:00 9 8 Norte 30 Norte 0 979.5 1.3 83
2019-12-02 11:00:00 8.1 16 Norte 32 Norte 0 979.4 1.6 89
2019-12-02 10:00:00 7.7 7 Norte 22 Nordeste 0 978.9 1.7 93
2019-12-02 09:00:00 7.7 10 Norte 33 Norte 0 978.2 1.4 93
2019-12-02 08:00:00 7.6 12 Norte 30 Norte 0 977.8 1.2 95
2019-12-02 07:00:00 7.3 9 Norte 28 Norte 0 977.2 0.6 96
2019-12-02 06:00:00 7.1 14 Norte 30 Norte 0 976.8 0.1 95
2019-12-02 05:00:00 6.9 14 Norte 32 Norte 0 976.6 0.1 92
2019-12-02 04:00:00 6.5 15 Norte 37 Norte 0 976.6 -0.2 94
2019-12-02 03:00:00 6.8 16 Norte 37 Norte 0 976.7 0.2 88
2019-12-02 02:00:00 6.6 18 Norte 35 Norte 0 976.5 -0.2 84
2019-12-02 01:00:00 6.4 15 Norte 39 Este 0 976.8 0.3 88
2019-12-02 00:00:00 6.6 14 Norte 37 Nordeste 0.1 976.5 0.2 90
2019-12-01 23:00:00 7 10 Norte 32 Norte 0.1 976.7 0.8 94
2019-12-01 22:00:00 7.1 15 Norte 33 Norte 0 976.5 1.6 94
2019-12-01 21:00:00 7.2 12 Norte 37 Nordeste 0 976.3 2.5 92
2019-12-01 20:00:00 7.5 13 Norte 39 Norte 0 975.9 3 85
2019-12-01 19:00:00 7.8 18 Norte 35 Nordeste 0 974.9 2.7 90
2019-12-01 18:00:00 8.2 14 Norte 37 Norte 0.1 973.8 2.1 95
2019-12-01 17:00:00 9 15 Norte 35 Norte 0.3 972.9 1.6 96
2019-12-01 16:00:00 10 21 Norte 41 Norte 0 972.2 1.1 88
2019-12-01 15:00:00 10.9 16 Norte 35 Norte 0 971.7 0.3 82
2019-12-01 14:00:00 10.7 10 Norte 35 Nordeste 0 971.3 0.8 84
2019-12-01 13:00:00 9.8 14 Norte 41 Norte 0 971.1 1.7 90
2019-12-01 12:00:00 9.5 17 Norte 42 Norte 0 971.4 3.4 92
2019-12-01 11:00:00 8.9 16 Norte 30 Norte 0 970.5 4.2 93
2019-12-01 10:00:00 7.6 10 Norte 24 Norte 0 969.4 4.5 99
2019-12-01 09:00:00 7.5 11 Norte 22 Norte 0 968 4.6 100
2019-12-01 08:00:00 7 6 Norte 21 Norte 0 966.3 3.5 100
2019-12-01 07:00:00 7.2 4 Nordeste 11 Norte 0 964.9 2.3 100
2019-12-01 06:00:00 7.6 3 Este 13 Sudeste 1 963.4 0.7 100
2019-12-01 05:00:00 7.7 6 Sudeste 17 Sudeste 3.7 962.8 -0.7 100
2019-12-01 04:00:00 7.6 6 Este 18 Sudeste 3.5 962.6 -1.8 100
2019-12-01 03:00:00 7.7 6 Sudeste 21 Sudeste 3 962.7 -2.7 100
2019-12-01 02:00:00 8.1 10 Sur 32 Sudoeste 2 963.5 -3.3 100
2019-12-01 01:00:00 8.3 15 Sur 33 Sur 5.8 964.4 -3.2 100
2019-12-01 00:00:00 7.9 15 Sur 32 Sudoeste 2.5 965.4 -3.4 99
2019-11-30 23:00:00 8.5 16 Sudoeste 37 Sur 3.1 966.8 -2.7 93
2019-11-30 22:00:00 8.9 12 Sur 21 Sur 0.3 967.6 -2.2 99
2019-11-30 21:00:00 8.3 9 Sudoeste 17 Sudoeste 0.6 968.8 -1.2 96
2019-11-30 20:00:00 8.9 13 Oeste 28 Oeste 4.9 969.5 -0.9 97
2019-11-30 19:00:00 9.8 15 Sudoeste 33 Sur 3 969.8 -0.7 95
2019-11-30 18:00:00 10.2 15 Sudoeste 35 Sudoeste 0 970 -0.8 91
2019-11-30 17:00:00 11 15 Sudoeste 37 Sudoeste 0 970.4 -0.7 87
2019-11-30 16:00:00 11.5 18 Sudoeste 42 Sudoeste 0 970.5 -1.4 83
2019-11-30 15:00:00 12 22 Sudoeste 46 Sudoeste 0 970.8 -1.6 78
2019-11-30 14:00:00 12 20 Sudoeste 46 Sudoeste 0 971.1 -1.4 80
2019-11-30 13:00:00 10.7 18 Sudoeste 48 Sudoeste 0.4 971.9 -0.7 83
2019-11-30 12:00:00 11.5 12 Sudoeste 30 Oeste 0 972.4 0.4 84
2019-11-30 11:00:00 10.1 15 Sudoeste 37 Sudoeste 0.4 972.5 1 91
2019-11-30 10:00:00 10.2 13 Sudoeste 24 Sudoeste 0 972.6 1.2 97
2019-11-30 09:00:00 10.5 10 Sudoeste 26 Sudoeste 0.2 972 1.1 96
2019-11-30 08:00:00 11.1 13 Sudoeste 28 Sudoeste 0 971.5 1.1 93
2019-11-30 07:00:00 11.5 17 Sudoeste 39 Oeste 0 971.4 0.5 92
2019-11-30 06:00:00 12.2 21 Oeste 46 Sudoeste 0.2 970.9 0.1 91
2019-11-30 05:00:00 13.3 28 Oeste 52 Oeste 7.6 970.4 -0.7 99
2019-11-30 04:00:00 13.8 23 Sudoeste 45 Sudoeste 0.2 970.9 -0.3 99
2019-11-30 03:00:00 14 27 Sudoeste 50 Sudoeste 2.7 970.8 -0.8 99
2019-11-30 02:00:00 14 26 Sudoeste 54 Sudoeste 1.5 971.1 -1.4 100
2019-11-30 01:00:00 14 22 Sudoeste 46 Sur 1.9 971.2 -2.1 100
2019-11-30 00:00:00 13.8 21 Sur 37 Sur 1.4 971.6 -2.5 100
2019-11-29 23:00:00 13.2 20 Sur 32 Sur 0.4 972.5 -1.7 100
2019-11-29 22:00:00 12.3 9 Sur 17 Sur 0 973.3 -1.6 100
2019-11-29 21:00:00 12.2 11 Sur 15 Sur 0 974.1 -1 99
2019-11-29 20:00:00 12 9 Sur 11 Sur 0 974.2 -0.6 99
2019-11-29 19:00:00 12.1 6 Sudoeste 13 Sudoeste 0 974.9 0.2 98
2019-11-29 18:00:00 12.7 8 Sudoeste 15 Sudoeste 0 975.1 -0.1 93
2019-11-29 17:00:00 13.2 7 Sur 18 Sur 0 974.8 -1 91
2019-11-29 16:00:00 14.1 11 Sudoeste 21 Sudoeste 0 974.7 -1.9 85
2019-11-29 15:00:00 13.7 14 Sur 22 Sur 0 975.2 -1.6 83
2019-11-29 14:00:00 12.1 8 Sur 13 Sur 0 975.8 -1 97
2019-11-29 13:00:00 10.3 3 Sur 13 Sur 0 976.6 0.4 100
2019-11-29 12:00:00 10.2 6 Sur 13 Sudeste 0 976.8 1.4 100
2019-11-29 11:00:00 10.1 2 Sur 8 Sur 0 976.8 1.4 100
2019-11-29 10:00:00 9.2 0 Calma 8 Sudeste 0 976.2 1.3 100
2019-11-29 09:00:00 8.9 4 Sudeste 9 Sudoeste 0 975.4 0.6 100
2019-11-29 08:00:00 9.1 0 Calma 9 Sur 0 975.4 1.3 100
2019-11-29 07:00:00 9.3 6 Sur 11 Sur 0 974.9 0.8 100
2019-11-29 06:00:00 9.1 5 Sudeste 8 Sudeste 0 974.8 1.6 100
2019-11-29 05:00:00 9 4 Noroeste 9 Oeste 0 974.1 1.1 100
2019-11-29 04:00:00 9.6 5 Noroeste 11 Oeste 0 974.1 0.9 100
2019-11-29 03:00:00 9.4 6 Sur 11 Sur 0 973.2 0.6 100
2019-11-29 02:00:00 9.7 4 Oeste 9 Oeste 0 973 0.8 100
2019-11-29 01:00:00 10.2 8 Oeste 11 Noroeste 0 973.2 1.7 99
2019-11-29 00:00:00 10.9 3 Noroeste 8 Oeste 0 972.6 2.1 98
2019-11-28 23:00:00 10.1 0 Calma 11 Nordeste 0 972.2 2.7 99
2019-11-28 22:00:00 10.6 4 Sudoeste 17 Noroeste 0 971.5 3.2 97
2019-11-28 21:00:00 11.5 12 Oeste 22 Oeste 0 970.5 3.5 95
2019-11-28 20:00:00 12.6 15 Oeste 28 Oeste 0.1 969.5 3.8 95
2019-11-28 19:00:00 13.2 19 Oeste 33 Oeste 0.4 968.3 2.9 99
2019-11-28 18:00:00 13.7 22 Sudoeste 46 Sudoeste 0.5 967 0.8 97
2019-11-28 17:00:00 13.9 30 Sudoeste 54 Sudoeste 3.2 965.7 -1.3 99
2019-11-28 16:00:00 12.8 22 Sudoeste 37 Sudoeste 7.1 965.4 -2.9 100
2019-11-28 15:00:00 11.8 15 Sur 42 Sudoeste 5.6 966.2 -3.2 100
2019-11-28 14:00:00 11.3 21 Sur 39 Sur 4.5 967 -2.2 100
2019-11-28 13:00:00 11.3 17 Sur 32 Sur 2.4 968.3 -1 100
2019-11-28 12:00:00 11.2 12 Sudoeste 28 Sudoeste 0 969.4 0.7 100
2019-11-28 11:00:00 11.1 17 Sudoeste 30 Sudoeste 0 969.2 0.6 98
2019-11-28 10:00:00 10.8 9 Sudoeste 26 Sudoeste 0.1 969.3 0.9 100
2019-11-28 09:00:00 10.8 9 Sudoeste 17 Oeste 0 968.7 0.6 99
2019-11-28 08:00:00 10.7 7 Oeste 17 Sudoeste 0 968.6 0.9 100
2019-11-28 07:00:00 10.6 6 Sudoeste 15 Sudoeste 0 968.4 0.2 99
2019-11-28 06:00:00 10.6 8 Oeste 17 Oeste 0 968.1 0.2 100
2019-11-28 05:00:00 10.6 7 Sudoeste 13 Oeste 0 967.7 -0.5 99
2019-11-28 04:00:00 10.6 8 Oeste 15 Sudoeste 0 968.2 -0.1 99
2019-11-28 03:00:00 10.5 4 Sudoeste 17 Oeste 0 967.9 -0.3 99
2019-11-28 02:00:00 10.9 11 Oeste 26 Sudoeste 0 968.2 0.2 95
2019-11-28 01:00:00 11.1 12 Oeste 24 Oeste 0.1 968.3 0.8 99
2019-11-28 00:00:00 11.3 13 Oeste 35 Sudoeste 0 968.2 0.7 97
2019-11-27 23:00:00 11.4 15 Oeste 39 Sudoeste 0.4 968 0.8 98
2019-11-27 22:00:00 11.5 21 Sudoeste 41 Sudoeste 2.3 967.5 0.3 99
2019-11-27 21:00:00 10.9 14 Sudoeste -- -- -- 967.5 0.7 100
2019-11-27 20:00:00 10.5 13 Sudoeste 39 Oeste 0 967.2 1.1 99
2019-11-27 19:00:00 10.5 20 Sudoeste 35 Sudoeste 0.3 967.2 1.5 99
2019-11-27 18:00:00 10.7 20 Sudoeste 46 Oeste 1.6 966.8 0.8 98
2019-11-27 17:00:00 11 19 Sudoeste 35 Sudoeste 2.5 966.1 -0.4 98
2019-11-27 16:00:00 11.2 17 Sudoeste 35 Sur 0.2 965.7 -1.1 95
2019-11-27 15:00:00 11.3 17 Sudoeste 35 Sudoeste 0 966 -1.2 95
2019-11-27 14:00:00 11 15 Sudoeste 30 Oeste 0 966.5 -0.4 97
2019-11-27 06:00:00 10 16 Sudoeste 26 Sudoeste 0 964.9 0.4 98
2019-11-27 05:00:00 10.1 13 Sudoeste 26 Sudoeste 0 965.1 1.1 94
2019-11-27 04:00:00 10.2 12 Sudoeste 24 Sudoeste 0 965.1 1.6 94
2019-11-27 03:00:00 10.2 10 Sudoeste 28 Sudoeste 0 964.5 1.6 98
2019-11-27 02:00:00 10.6 15 Sudoeste 37 Sudoeste 0 964 1.7 92
2019-11-27 01:00:00 10.4 19 Oeste 39 Sudoeste 2.3 963.5 1.5 94
2019-11-27 00:00:00 10.4 21 Sudoeste 48 Sudoeste 2.2 962.9 1.1 98
2019-11-26 23:00:00 10.2 26 Sudoeste 46 Sudoeste 0.8 962.3 1.4 96
2019-11-26 22:00:00 10.2 22 Sudoeste 39 Sudoeste 0.3 962 2 95
2019-11-26 21:00:00 10.6 20 Sudoeste -- -- -- 961.8 2.6 86
2019-11-26 20:00:00 10.6 26 Sudoeste 55 Oeste 0.1 960.9 2.8 84
2019-11-26 19:00:00 10.9 29 Oeste 59 Oeste 4.4 960 2.2 89
2019-11-26 18:00:00 10.1 20 Oeste 67 Oeste 6.3 959.2 1.2 99
2019-11-26 17:00:00 10.3 29 Oeste 78 Sudoeste 18.2 958.1 -0.9 100
2019-11-26 16:00:00 13.2 36 Sudoeste 72 Sudoeste 0.6 957.8 -2.4 89
2019-11-26 15:00:00 13.3 39 Sudoeste 68 Sudoeste 0.1 958 -3.8 90
2019-11-26 14:00:00 13.5 31 Sudoeste 63 Sur 0 959 -3.4 93
2019-11-26 13:00:00 14.2 31 Sur 61 Sur 0 960.2 -2.6 87
2019-11-26 12:00:00 13.7 25 Sudoeste 48 Sur 0 961.8 -1.7 93
2019-11-26 11:00:00 13.5 26 Sudoeste 50 Sudoeste 0 962.4 -1.2 94
2019-11-26 10:00:00 13.2 22 Sudoeste 52 Sudoeste 0 962.8 -0.8 95
2019-11-26 09:00:00 13.1 24 Sudoeste 42 Sudoeste 0 963.5 -0.4 97
2019-11-26 08:00:00 13.1 22 Sudoeste 50 Sudoeste 0 963.6 -0.6 97
2019-11-26 07:00:00 13.2 26 Sudoeste 54 Sudoeste 0.2 963.6 -0.9 97
2019-11-26 06:00:00 13.4 28 Sudoeste 54 Sudoeste 0.1 963.9 -0.3 97
2019-11-26 05:00:00 13.6 26 Sudoeste 55 Sudoeste 0.1 964.2 -0.4 98
2019-11-26 04:00:00 13.9 30 Sudoeste 61 Sudoeste 0.6 964.5 -1.2 100
2019-11-26 03:00:00 14.5 32 Sudoeste 61 Sur 2.7 964.2 -2 100
2019-11-26 02:00:00 13.7 25 Sur 50 Sur 2.2 964.6 -2.5 100
2019-11-26 01:00:00 13.5 27 Sur 46 Sur 0.8 965.7 -2.1 99
2019-11-26 00:00:00 12.6 23 Sur 39 Sudoeste 1.6 966.2 -2.4 100
2019-11-25 23:00:00 12.2 14 Sur 33 Sur 0.3 967.1 -1.8 99
2019-11-25 22:00:00 12.8 19 Sur 37 Sur 0 967.8 -1.8 92
2019-11-25 21:00:00 12.7 24 Sur 45 Sur 0 968.6 -1.2 91
2019-11-25 20:00:00 12.5 25 Sur 41 Sur 0 968.9 -0.8 91
2019-11-25 19:00:00 12 15 Sur 33 Sur 0 969.6 0 94
2019-11-25 18:00:00 12.1 15 Sur 30 Sur 0 969.8 0 91
2019-11-25 17:00:00 12.5 14 Sur 35 Sur 0 969.7 -0.4 89
2019-11-25 16:00:00 12.4 19 Sudoeste 32 Sudoeste 0 969.6 -0.6 86
2019-11-25 15:00:00 12.1 15 Sudoeste 30 Sudoeste 0.1 969.8 -1 96
2019-11-25 14:00:00 11.8 19 Sur 30 Sur 0 970.1 -0.2 95
2019-11-25 13:00:00 11.6 12 Sur 21 Sur 0.2 970.2 0.7 98
2019-11-25 12:00:00 11 12 Sur 22 Oeste 0.1 970.8 1.9 97
2019-11-25 11:00:00 11.1 8 Sudoeste 28 Sudoeste 0 970.3 2 96
2019-11-25 10:00:00 10.8 12 Sur 26 Sudoeste 0 969.5 1.8 98
2019-11-25 09:00:00 10.8 15 Sudoeste 30 Sudoeste 0 968.9 1.8 97
2019-11-25 08:00:00 11.1 10 Sudoeste 28 Sudoeste 0.1 968.3 1.5 98
2019-11-25 07:00:00 11.1 13 Sudoeste 37 Oeste 0.4 967.7 0.8 97
2019-11-25 06:00:00 11.8 15 Oeste 41 Sudoeste 1.1 967.1 0.5 98
2019-11-25 05:00:00 11.8 21 Sudoeste 35 Sudoeste 0 966.8 0.6 99
2019-11-25 04:00:00 11.7 14 Sudoeste 26 Sudoeste 0 966.9 0.5 95
2019-11-25 03:00:00 11.7 15 Oeste -- -- -- 966.6 0.8 97
2019-11-25 02:00:00 12.3 21 Sudoeste 35 Sudoeste 0 966.2 1.3 97
2019-11-25 01:00:00 12.4 15 Sudoeste 39 Sudoeste 0 966.4 1.5 97
2019-11-25 00:00:00 12.8 22 Oeste 48 Sudoeste 1.6 965.8 1 97
2019-11-24 23:00:00 13.4 21 Sudoeste 45 Oeste 0 964.9 0.2 97
2019-11-24 22:00:00 13.5 19 Sudoeste 41 Sudoeste 0.8 964.9 0.3 99
2019-11-24 21:00:00 13.3 27 Sudoeste 48 Sudoeste 0.1 964.8 0.7 99
2019-11-24 20:00:00 13.1 23 Sudoeste 41 Sudoeste 0 964.7 1 98
2019-11-24 19:00:00 13 26 Sudoeste 61 Sudoeste 0 964.6 0.2 96
2019-11-24 18:00:00 13.2 32 Sudoeste 52 Sudoeste 2.8 964.1 -1.6 98
2019-11-24 17:00:00 11.4 24 Sur 45 Sur 3.5 963.7 -2.8 100
2019-11-24 16:00:00 11.2 18 Sur 37 Sur 1.9 964.4 -3.3 100
2019-11-24 15:00:00 10.6 13 Sur 35 Sur 1.4 965.7 -3.1 100
2019-11-24 14:00:00 9.9 25 Sur 45 Sur 0.5 966.5 -2.6 99
2019-11-24 13:00:00 9.9 25 Sur 45 Sur 0.1 967.7 -2 98
2019-11-24 12:00:00 9.4 17 Sur 33 Sur 0 968.8 -0.5 98
2019-11-24 11:00:00 9.1 13 Sur 28 Sur 0 969.1 -0.4 97
2019-11-24 10:00:00 8.6 15 Sur 24 Sur 0 969.7 0 97
2019-11-24 09:00:00 7.9 11 Sur 17 Sur 0 969.3 -0.4 98
2019-11-24 08:00:00 7.5 3 Sur 15 Sur 0 969.5 -0.6 99
2019-11-24 07:00:00 7.7 10 Sudoeste 17 Sudoeste 0 969.7 -1.1 99
2019-11-24 06:00:00 6.3 6 Sur 11 Sur 0 969.7 -0.8 100
2019-11-24 05:00:00 6.6 8 Sur 17 Sudoeste 0 970.1 -0.1 98
2019-11-24 04:00:00 7.3 11 Sudoeste 17 Sudoeste 0 970.8 0.5 95
2019-11-24 03:00:00 6.8 11 Sudoeste 17 Sudoeste 0 970.5 0.4 97
2019-11-24 02:00:00 6.8 11 Sudoeste 17 Sudoeste 0 970.2 -0.2 96
2019-11-24 01:00:00 7.7 10 Sudoeste 18 Sur 0 970.3 0.3 93
2019-11-24 00:00:00 7.7 11 Sudoeste 18 Sudoeste 0 970.1 0.4 96
2019-11-23 23:00:00 8.1 9 Sudoeste 15 Sudoeste 0 970.4 0.9 95
2019-11-23 22:00:00 7.9 5 Oeste 15 Sudoeste 0 970 1.3 95
2019-11-23 21:00:00 8.1 10 Sudoeste 18 Oeste 0 969.7 1.8 95
2019-11-23 20:00:00 8.2 8 Oeste 13 Oeste 0 969.5 2.5 97
2019-11-23 19:00:00 8.3 12 Noroeste 17 Oeste 0.1 968.7 2.2 96
2019-11-23 18:00:00 8.5 7 Noroeste 18 Noroeste 0 967.9 2.2 97
2019-11-23 17:00:00 8.9 16 Noroeste 28 Noroeste 0.9 967 1.7 97
2019-11-23 16:00:00 9.7 20 Noroeste 35 Oeste 0.3 966.5 1.1 91
2019-11-23 15:00:00 10.7 17 Noroeste 37 Noroeste 0 965.7 0.9 87
2019-11-23 14:00:00 11.7 20 Oeste 32 Noroeste 0 965.3 1.5 78
2019-11-23 13:00:00 11 17 Noroeste 32 Oeste 0.3 965.4 2.5 83
2019-11-23 12:00:00 10.6 20 Noroeste 32 Noroeste 0 964.8 3.1 84
2019-11-23 11:00:00 9.4 13 Oeste 22 Oeste 0 963.8 3.2 92
2019-11-23 10:00:00 7.9 8 Oeste 15 Oeste 0 962.9 3.4 95
2019-11-23 09:00:00 7 14 Noroeste 26 Oeste 0.3 961.7 3.3 95
2019-11-23 08:00:00 6.7 13 Oeste 22 Oeste 0.3 960.6 3.3 96
2019-11-23 07:00:00 7 7 Noroeste 35 Noroeste 0.2 959.5 3.1 97
2019-11-23 06:00:00 7.3 17 Oeste 28 Oeste 0 958.4 3.1 95
2019-11-23 05:00:00 6.6 8 Oeste 22 Norte 0.3 957.3 3.2 96
2019-11-23 04:00:00 7 7 Oeste 22 Oeste 0 956.4 3.5 91
2019-11-23 03:00:00 7.2 15 Noroeste 32 Oeste 0 955.3 3.6 86
2019-11-23 02:00:00 7.2 14 Noroeste 33 Oeste 0.5 954.1 3.9 94
2019-11-23 01:00:00 7.5 25 Noroeste 42 Noroeste 0.9 952.9 4.4 92
2019-11-23 00:00:00 7.4 24 Noroeste 46 Noroeste 1.4 951.7 5 94
2019-11-22 23:00:00 7.6 26 Noroeste 50 Noroeste 2.1 950.2 4.8 94
2019-11-22 22:00:00 7.8 27 Noroeste 61 Oeste 1.2 948.5 4.4 94
2019-11-22 21:00:00 8.5 27 Oeste 50 Noroeste 0.5 946.7 3.4 95
2019-11-22 20:00:00 9.1 27 Oeste 52 Sudoeste 0.5 945.4 3.1 95
2019-11-22 19:00:00 9.4 21 Sudoeste 45 Oeste 1.3 944.1 2.6 97
2019-11-22 18:00:00 9.8 26 Oeste 50 Sudoeste 0.4 943.3 0.7 95
2019-11-22 17:00:00 10.5 27 Oeste 63 Sudoeste 2.2 942.3 -0.9 93
2019-11-22 16:00:00 10 22 Sudoeste 61 Sudoeste 1.8 941.5 -2.6 98
2019-11-22 15:00:00 10.5 20 Sudoeste 42 Sudoeste 0.7 942.6 -1.8 94
2019-11-22 14:00:00 11.2 26 Sudoeste 54 Oeste 0.2 943.2 -0.3 89
2019-11-22 13:00:00 11.4 22 Sudoeste 42 Oeste 0.1 944.1 1.8 91
2019-11-22 12:00:00 12.2 24 Sudoeste 45 Sudoeste 0 944.4 2.4 85
2019-11-22 11:00:00 11.1 27 Oeste 65 Oeste 4.3 943.5 0.4 94
2019-11-22 10:00:00 12.8 32 Sudoeste 54 Oeste 6.9 942.3 -2.9 100
2019-11-22 09:00:00 11.9 23 Sudoeste 46 Sur 5 942 -4.9 100
2019-11-22 08:00:00 10.6 15 Sur 42 Sur 3.3 943.1 -5 100
2019-11-22 07:00:00 10.3 27 Sur 46 Sur 0.7 945.2 -5.1 99
2019-11-22 06:00:00 9.4 24 Sur 42 Sur 1.8 946.9 -5.3 99
2019-11-22 05:00:00 9 27 Sur 45 Sur 2.6 948.1 -6.2 97
2019-11-22 04:00:00 8.1 10 Sur 28 Sudeste 1 950.3 -5.9 99
2019-11-22 03:00:00 8.1 13 Sur 28 Sudeste 1.6 952.2 -5.1 98
2019-11-22 02:00:00 8.2 17 Sur 37 Sur 0.4 954.3 -4.4 96
2019-11-22 01:00:00 9 22 Sur 33 Sur 0 956.2 -3.3 89
2019-11-22 00:00:00 8.6 12 Sur 32 Sur 0 957.3 -2.6 95
2019-11-21 23:00:00 8.2 9 Sur 22 Sur 0 958.7 -2.1 95
2019-11-21 22:00:00 8.3 15 Sur 22 Sur 0 959.5 -1.4 94
2019-11-21 21:00:00 8.1 10 Sur 15 Sur 0 959.9 -1.5 95
2019-11-21 20:00:00 8.2 8 Sur 17 Sur 0.5 960.8 -0.6 96
2019-11-21 19:00:00 8.1 6 Sudoeste 17 Sur 0 960.9 -0.3 97
2019-11-21 18:00:00 8.7 11 Sudoeste 30 Sudoeste 0.8 961.4 -0.3 94
2019-11-21 17:00:00 8.9 12 Sudoeste 30 Oeste 2.7 961.4 -0.2 92
2019-11-21 16:00:00 9.2 10 Oeste 22 Oeste 1.6 961.2 -0.8 90
2019-11-21 15:00:00 8.7 7 Oeste 41 Noroeste 0 961.7 -1 91
2019-11-21 14:00:00 11 13 Sur 32 Sur 0 961.6 -0.9 82
2019-11-21 13:00:00 10.9 20 Sudoeste 37 Sur 0 962 -0.2 83
2019-11-21 12:00:00 9.6 11 Sudoeste 24 Oeste 0 962.7 0.7 93
2019-11-21 11:00:00 8.2 9 Sur 17 Sur 0 962.5 0.9 96
2019-11-21 10:00:00 7.1 10 Sur 21 Sur 0 962.2 0.8 99
2019-11-21 09:00:00 6 7 Sur 18 Sudoeste 0.9 962 0.8 96
2019-11-21 08:00:00 -- -- -- -- -- -- -- -- --
2019-11-21 07:00:00 -- -- -- -- -- -- -- -- --
2019-11-21 06:00:00 -- -- -- -- -- -- -- -- --
2019-11-21 05:00:00 -- -- -- -- -- -- -- -- --
2019-11-21 04:00:00 -- -- -- -- -- -- -- -- --
2019-11-21 03:00:00 -- -- -- -- -- -- -- -- --
2019-11-21 02:00:00 -- -- -- -- -- -- -- -- --
2019-11-21 01:00:00 -- -- -- -- -- -- -- -- --
2019-11-21 00:00:00 -- -- -- -- -- -- -- -- --
2019-11-20 23:00:00 -- -- -- -- -- -- -- -- --
2019-11-20 22:00:00 -- -- -- -- -- -- -- -- --
2019-11-20 21:00:00 -- -- -- -- -- -- -- -- --
2019-11-20 20:00:00 -- -- -- -- -- -- -- -- --
2019-11-20 19:00:00 7.4 15 Sudoeste 28 Sudoeste 2.3 961.1 0 99
2019-11-20 18:00:00 7.4 6 Sur 15 Sur 0 960.7 -0.6 98
2019-11-20 17:00:00 7.8 7 Sur 28 Sur 0.1 960.9 -1.1 98
2019-11-20 16:00:00 8 15 Sur 24 Sur 0 961.1 -1.3 99
2019-11-20 15:00:00 7.7 14 Sur 24 Sur 0.7 961.3 -1.7 99
2019-11-20 14:00:00 7.3 14 Sur 28 Sur 0.8 962 -1.2 95
2019-11-20 13:00:00 7.4 14 Sur 28 Sudoeste 0.7 962.4 -0.9 93
2019-11-20 12:00:00 7.1 10 Sur 17 Sur 0.8 963 -0.3 95
2019-11-20 11:00:00 7.1 9 Sur 15 Sur 0 963.2 -0.3 94
2019-11-20 10:00:00 4.9 6 Sur 11 Sudeste 0 963.3 -0.6 100
2019-11-20 09:00:00 4.4 8 Sur 11 Sudeste 0 963.3 -0.9 100
2019-11-20 08:00:00 4.7 9 Sur 11 Sur 0 963.5 -1.1 100
2019-11-20 07:00:00 4.5 6 Sur 11 Sudeste 0 963.9 -1.5 100
2019-11-20 06:00:00 4.8 6 Sur 11 Sur 0 964.2 -1.6 100
2019-11-20 05:00:00 5.4 7 Sur 11 Sur 0 964.6 -2 100
2019-11-20 04:00:00 5.3 2 Sur 11 Sur 0 965.4 -1.9 100
2019-11-20 03:00:00 6.5 8 Sudeste 11 Sudeste 0 965.8 -1.8 100
2019-11-20 02:00:00 7.3 4 Sur 11 Sur 0 966.6 -1.4 100
2019-11-20 01:00:00 7.8 6 Sur 11 Sur 0 967.3 -0.9 100
2019-11-20 00:00:00 8 4 Sur 15 Sur 0 967.6 -0.8 100
2019-11-19 23:00:00 8.1 6 Sur 15 Sur 0 968 -0.8 100
2019-11-19 22:00:00 8.1 9 Sudoeste 17 Sur 0 968.2 -0.9 100
2019-11-19 21:00:00 8.1 6 Sur 13 Sudoeste 0.3 968.4 -0.5 100
2019-11-19 20:00:00 8.1 9 Sur 15 Sur 0.5 968.8 -0.1 100
2019-11-19 19:00:00 8.2 10 Sur 21 Sudoeste 0.6 969.1 -0.1 100
2019-11-19 18:00:00 8.3 10 Sur 18 Sudoeste 0.7 968.9 -0.7 100
2019-11-19 17:00:00 8.4 10 Sudoeste 24 Sudoeste 0.1 968.9 -1.2 100
2019-11-19 16:00:00 8.3 13 Sudoeste 18 Sudoeste 0.7 969.2 -1.8 100
2019-11-19 15:00:00 8.1 8 Sur 17 Sudeste 1.3 969.6 -2.2 100
2019-11-19 14:00:00 7.8 9 Sur 17 Sur 0.8 970.1 -2.1 100
2019-11-19 13:00:00 7.5 7 Sur 11 Sur 0.8 971 -1.2 100
2019-11-19 12:00:00 7 9 Sur 13 Sur 0 971.8 -0.6 100
2019-11-19 11:00:00 6.2 7 Sur 13 Sudeste 0 972.2 -0.2 100
2019-11-19 10:00:00 5.3 8 Sur 13 Sur 0 972.2 0.1 100
2019-11-19 09:00:00 4.6 3 Sur 8 Sur 0.1 972.4 -0.1 100
2019-11-19 08:00:00 4.2 2 Sudeste 9 Sur 0.4 972.4 -0.4 100
2019-11-19 07:00:00 3.9 3 Sur 9 Sur 0.1 972.1 -1.3 100
2019-11-19 06:00:00 3.7 5 Sur 9 Sur 0 972.5 -1.3 100
2019-11-19 05:00:00 3.4 5 Sudeste 9 Sudeste 0 972.8 -1.6 100
2019-11-19 04:00:00 2.9 5 Sur 9 Sur 0 973.4 -1.4 100
2019-11-19 03:00:00 3.8 7 Sur 9 Sur 0 973.8 -1.2 100
2019-11-19 02:00:00 3.8 6 Sur 9 Sur 0 974.4 -1 100
2019-11-19 01:00:00 4.2 6 Sur 9 Sur 0 974.8 -0.9 100
2019-11-19 00:00:00 4.8 8 Sur 9 Sur 0 975 -0.8 100
2019-11-18 23:00:00 5.4 4 Sur 9 Sudeste 0 975.4 -0.3 100
2019-11-18 22:00:00 6.3 3 Sur 11 Oeste 0 975.7 0.1 99
2019-11-18 21:00:00 6.5 2 Sudoeste 9 Sudoeste 0 975.8 0 96
2019-11-18 20:00:00 5.8 0 Calma 4 Sudeste 0 975.7 0.3 95
2019-11-18 19:00:00 6.8 0 Calma 4 Norte 0 975.6 0.1 93
2019-11-18 18:00:00 8.5 0 Calma 9 Noroeste 0 975.8 0.3 87
2019-11-18 17:00:00 10.5 6 Norte 9 Noroeste 0 975.4 -0.7 76
2019-11-18 16:00:00 10.3 3 Norte 13 Norte 0 975.5 -1 81
2019-11-18 15:00:00 10.5 2 Norte 9 Norte 0 975.5 -1.3 79
2019-11-18 14:00:00 10 3 Sur 9 Oeste 0 976.1 -0.8 85
2019-11-18 13:00:00 9.5 2 Nordeste 11 Norte 0 976.5 -0.2 87
2019-11-18 12:00:00 8.3 4 Sudoeste 9 Sudoeste 0 976.8 0.8 97
2019-11-18 11:00:00 7.7 3 Sur 8 Sur 0 976.9 1.5 100
2019-11-18 10:00:00 5.3 0 Calma 21 Sudoeste 0 976.7 1.7 100
2019-11-18 09:00:00 5 0 Calma 9 Noroeste 0 976 1.2 100
2019-11-18 08:00:00 5.1 4 Sur 8 Sudoeste 0 975.4 1 100
2019-11-18 07:00:00 6 4 Norte 17 Noroeste 0.3 975 1 100
2019-11-18 06:00:00 5.9 11 Noroeste 15 Noroeste 0 974.8 1.3 100
2019-11-18 05:00:00 5.5 8 Norte 15 Noroeste 0.1 974.4 1 100
2019-11-18 04:00:00 6 5 Norte 13 Norte 0.2 974 0.7 100
2019-11-18 03:00:00 5.8 9 Noroeste 18 Norte 0.1 973.5 0.6 99
2019-11-18 02:00:00 6.7 12 Noroeste 18 Noroeste 0 973.4 0.5 99
2019-11-18 01:00:00 5 9 Norte 11 Norte 0 973.3 1 99
2019-11-18 00:00:00 5.8 5 Norte 17 Norte 0 972.9 1 99
2019-11-17 23:00:00 7 15 Norte 28 Norte 0 972.9 1.8 99
2019-11-17 22:00:00 7.1 10 Noroeste 24 Noroeste 1.2 972.3 1.4 99
2019-11-17 21:00:00 7.4 18 Norte 41 Norte 5.2 971.9 1.1 98
2019-11-17 20:00:00 7.7 12 Noroeste 28 Noroeste 0.6 971.1 0.4 97
2019-11-17 19:00:00 7.8 14 Noroeste 22 Noroeste 0 970.9 0.3 93
2019-11-17 18:00:00 8 16 Noroeste 30 Noroeste 0.1 970.8 0.2 92
2019-11-17 17:00:00 9.4 18 Noroeste 30 Noroeste 0 970.7 -0.1 87
2019-11-17 16:00:00 8.7 23 Noroeste 35 Oeste 0.2 970.6 -0.6 87
2019-11-17 15:00:00 10 19 Noroeste 39 Noroeste 0 970.6 -0.9 80
2019-11-17 14:00:00 9.9 21 Noroeste 32 Norte 0 970.8 -0.5 84
2019-11-17 13:00:00 9.5 17 Noroeste 37 Oeste 0.2 971.2 0.2 90
2019-11-17 12:00:00 9 8 Noroeste 24 Oeste 0.3 971.5 0.8 96
2019-11-17 11:00:00 8.9 13 Noroeste 26 Oeste 0 971.3 1.1 95
2019-11-17 10:00:00 8.5 10 Noroeste 22 Noroeste 0.1 971 1 99
2019-11-17 09:00:00 8.5 18 Noroeste 33 Oeste 0.3 970.7 1 100
2019-11-17 08:00:00 8.7 10 Noroeste 28 Oeste 0.5 970.2 0.8 100
2019-11-17 07:00:00 8.5 8 Oeste 26 Sudoeste 2.4 970 -0.2 100
2019-11-17 06:00:00 8.1 16 Sudoeste 33 Sudoeste 0.7 969.7 -1 100
2019-11-17 05:00:00 7.8 15 Sudoeste 26 Sudoeste 0 969.4 -1.5 100
2019-11-17 04:00:00 7.7 12 Sudoeste 24 Sudoeste 0 970.2 -1.3 100
2019-11-17 03:00:00 7.5 10 Sudoeste 30 Sur 0 970.7 -1.1 100
2019-11-17 02:00:00 7.4 14 Sur 24 Sur 0 970.9 -1.4 100
2019-11-17 01:00:00 7.2 14 Sur 24 Sur 0 971.5 -1.1 99
2019-11-17 00:00:00 7.1 16 Sur 26 Sur 0 971.8 -0.9 99
2019-11-16 23:00:00 6.9 14 Sur 28 Sur 0 972.3 -0.4 99
2019-11-16 22:00:00 6.9 13 Sur 30 Sudoeste 0 972.6 -0.3 100
2019-11-16 21:00:00 6.9 17 Sur 28 Sur 0.1 972.7 -0.6 100
2019-11-16 20:00:00 7.2 10 Sur 17 Sudoeste 0 972.7 -0.8 97
2019-11-16 19:00:00 7 10 Sur 21 Sudoeste 0 972.9 -0.6 98
2019-11-16 18:00:00 7.2 9 Sudoeste 21 Sur 0 973.3 -0.3 96
2019-11-16 17:00:00 7.7 7 Sudoeste 24 Sudoeste 0 973.5 -0.2 93
2019-11-16 16:00:00 7.7 13 Sudoeste 28 Sudoeste 0 973.5 -0.6 90
2019-11-16 15:00:00 7.9 14 Sudoeste 26 Sudoeste 0 973.6 -1 90
2019-11-16 14:00:00 7.8 13 Sudoeste 26 Sudoeste 0 973.7 -0.6 91
2019-11-16 13:00:00 7.1 14 Sudoeste 21 Sudoeste 0 974.1 -0.1 93
2019-11-16 12:00:00 6 6 Sudeste 17 Sudoeste 0 974.6 0.6 99
2019-11-16 11:00:00 5.1 7 Oeste 13 Oeste 0 974.3 1.2 99
2019-11-16 10:00:00 3.2 2 Este 8 Sur 0 974.2 1.2 100
2019-11-16 09:00:00 2.2 3 Este 11 Nordeste 0 974 1.4 100
2019-11-16 08:00:00 2.2 6 Sur 11 Sur 0 973.1 0.9 100
2019-11-16 07:00:00 2 0 Calma 5 Sur 0 973 0.7 100
2019-11-16 06:00:00 2.2 2 Este 5 Sur 0 972.6 0.6 100
2019-11-16 05:00:00 3.5 4 Oeste 8 Noroeste 0 972.2 0.5 100
2019-11-16 04:00:00 3.2 4 Noroeste 9 Noroeste 0.1 972.3 0.7 100
2019-11-16 03:00:00 3.7 3 Oeste 11 Sudeste 0 972 0.7 100
2019-11-16 02:00:00 3.6 10 Oeste 13 Oeste 0.2 971.7 0.5 98
2019-11-16 01:00:00 4.1 10 Noroeste 21 Noroeste 0.4 971.6 1.1 98
2019-11-16 00:00:00 3.9 3 Sudoeste 17 Oeste 0.1 971.3 1.7 98
2019-11-15 23:00:00 3.9 5 Oeste 35 Norte 1 971.2 1.6 98
2019-11-15 22:00:00 4.2 13 Noroeste 21 Oeste 0.9 970.5 1.6 98
2019-11-15 21:00:00 4 0 Calma 37 Norte 1.3 969.6 1.4 97
2019-11-15 20:00:00 4.2 18 Norte 35 Norte 3.4 969.6 1.7 95
2019-11-15 19:00:00 4.6 6 Norte 18 Norte 0.3 968.9 0.8 96
2019-11-15 18:00:00 4.6 8 Noroeste 37 Norte 0 968.2 0.4 93
2019-11-15 17:00:00 4.4 9 Norte 24 Noroeste 0.9 967.9 0.3 97
2019-11-15 16:00:00 4.5 17 Noroeste 39 Norte 2 968.1 0.1 96
2019-11-15 15:00:00 5.7 15 Norte 41 Norte 1.1 967.8 -1 95
2019-11-15 14:00:00 7.9 22 Norte 45 Noroeste 0 967.6 -0.7 78
2019-11-15 13:00:00 7.8 21 Norte 35 Norte 0 968 -0.3 80
2019-11-15 12:00:00 5.2 16 Norte 45 Norte 0.5 968.8 0.8 91
2019-11-15 11:00:00 5.5 22 Norte 37 Norte 0.3 968.3 0.7 85
2019-11-15 10:00:00 4.6 6 Oeste 33 Norte 0 968.3 1.2 90
2019-11-15 09:00:00 3.6 14 Norte 32 Norte 0.4 968 1.1 95
2019-11-15 08:00:00 4.1 25 Norte 48 Norte 0.3 967.6 1.1 89
2019-11-15 07:00:00 4.3 21 Noroeste 35 Noroeste 0.4 967.1 0.5 89
2019-11-15 06:00:00 4.2 13 Noroeste 32 Norte 0 966.9 0.4 88
2019-11-15 05:00:00 3.5 6 Oeste 24 Norte 0 966.5 -0.3 97
2019-11-15 04:00:00 4.4 19 Norte 41 Norte 0.8 966.6 -0.1 93
2019-11-15 03:00:00 4.1 28 Norte 52 Norte 1.1 966.5 0.2 90
2019-11-15 02:00:00 4.4 0 Calma 22 Norte 0 966.8 0.8 92
2019-11-15 01:00:00 5 11 Norte 28 Norte 0.1 966.7 1 86
2019-11-15 00:00:00 5.3 18 Norte 50 Norte 0 966.3 0.9 84
2019-11-14 23:00:00 5.6 23 Norte 45 Noroeste 0 966 1.4 79
2019-11-14 22:00:00 5.8 17 Norte 32 Norte 0 965.7 1.4 78
2019-11-14 21:00:00 6.2 25 Norte 48 Norte 0 965.4 1.7 76
2019-11-14 20:00:00 6 27 Norte -- -- -- 964.6 1.8 81
2019-11-14 19:00:00 6.8 33 Norte 59 Norte 0.1 964.3 2.7 81
2019-11-14 18:00:00 7 28 Norte 68 Norte 0.5 963.7 2.4 88
2019-11-14 17:00:00 7.3 33 Norte 76 Norte 1.7 962.8 2.6 90
2019-11-14 16:00:00 7.3 47 Norte 82 Norte 3.6 961.6 1.9 91
2019-11-14 15:00:00 7.7 41 Norte 82 Norte 1.5 961.3 2.1 90
2019-11-14 14:00:00 7.8 42 Norte 68 Noroeste 0.6 960.2 1.1 90
2019-11-14 13:00:00 7 55 Norte 87 Norte 1.5 959.7 -0.6 91
2019-11-14 12:00:00 8 41 Norte 67 Norte 1.2 959.2 -2.3 88
2019-11-14 11:00:00 6.5 18 Sudoeste 42 Oeste 1.1 959.1 -3.4 94
2019-11-14 10:00:00 5.2 21 Sudoeste 46 Oeste 0.4 960.3 -2.7 93
2019-11-14 09:00:00 4.2 19 Sudoeste 35 Sudoeste 1.4 961.5 -2.5 96
2019-11-14 08:00:00 4.2 13 Sudoeste 24 Oeste 0 962.5 -1.9 95
2019-11-14 07:00:00 4.4 4 Oeste 24 Oeste 0.4 963 -2.3 93
2019-11-14 06:00:00 4.6 4 Noroeste 24 Noroeste 0.1 964 -1.9 98
2019-11-14 05:00:00 4.6 6 Sudoeste 30 Oeste 1.4 964.4 -2.5 94
2019-11-14 04:00:00 5.6 9 Oeste 18 Oeste 0.1 965.3 -1.8 92
2019-11-14 03:00:00 5.5 10 Oeste 45 Noroeste 0.5 965.9 -1.2 93
2019-11-14 02:00:00 6.2 32 Noroeste 52 Noroeste 0.4 966.9 -0.8 90
2019-11-14 01:00:00 7.1 28 Noroeste 55 Noroeste 0.3 967.1 -0.8 91
2019-11-14 00:00:00 8.4 26 Noroeste 42 Oeste 0 967.1 -1.3 90
2019-11-13 23:00:00 8.6 25 Noroeste 46 Oeste 1.7 967.7 -2 94
2019-11-13 22:00:00 9.6 21 Oeste 41 Oeste 3.2 967.9 -2.9 99
2019-11-13 21:00:00 9.5 19 Sudoeste 35 Sudoeste 0.2 968.4 -2.9 97
2019-11-13 20:00:00 9.1 14 Sudoeste 28 Sudoeste 0 969.7 -2 98
2019-11-13 19:00:00 9.3 16 Sudoeste 28 Sudoeste 0.1 970.8 -0.8 95
2019-11-13 18:00:00 10.1 10 Sudoeste 30 Oeste 0 971.3 -0.6 88
2019-11-13 17:00:00 10.4 20 Oeste 37 Oeste 0 971.7 -1.1 86
2019-11-13 16:00:00 11.9 13 Oeste 24 Oeste 0 971.6 -1.6 82
2019-11-13 15:00:00 12.3 11 Oeste 24 Noroeste 0 971.9 -2.1 82
2019-11-13 14:00:00 11.5 11 Noroeste 21 Oeste 0 972.8 -0.2 85
2019-11-13 13:00:00 10.6 5 Noroeste 37 Noroeste 0 973.2 0.6 90
2019-11-13 12:00:00 11.1 23 Noroeste 32 Noroeste 0 974 2 88
2019-11-13 11:00:00 11 19 Norte 28 Norte 0 973 2.3 91
2019-11-13 10:00:00 10.5 16 Norte 24 Norte 0.1 972.6 2.9 94
2019-11-13 09:00:00 9.6 12 Norte 21 Norte 0 972 3.2 99
2019-11-13 08:00:00 9.9 9 Norte 24 Norte 0 970.7 3.1 98
2019-11-13 07:00:00 10.1 9 Norte 24 Norte 0 969.7 2.5 98
2019-11-13 06:00:00 10.5 10 Norte 28 Norte 0 968.8 2.9 99
2019-11-13 05:00:00 10.8 8 Norte 26 Norte 0 967.6 2.3 99
2019-11-13 04:00:00 11.3 16 Norte 28 Norte 0 967.2 3 100
2019-11-13 03:00:00 11.7 15 Norte 37 Norte 1.5 965.9 1.4 100
2019-11-13 02:00:00 12.8 23 Norte 35 Norte 6.7 965.3 0.9 100
2019-11-13 01:00:00 14 15 Oeste 28 Oeste 0.3 964.2 -0.4 99
2019-11-13 00:00:00 14 15 Oeste 41 Noroeste 0.4 964.5 -0.6 97
2019-11-12 23:00:00 14.1 19 Oeste 33 Oeste 1.9 964.4 -1.3 99
2019-11-12 22:00:00 13.9 17 Oeste 33 Sudoeste 1.5 964.6 -1.4 99
2019-11-12 21:00:00 13.7 13 Oeste 28 Oeste 0.5 965.1 -1.3 99
2019-11-12 20:00:00 13.6 16 Oeste 32 Oeste 1 965.7 -1.3 99
2019-11-12 19:00:00 13.5 19 Oeste 33 Oeste 3 966 -1.4 99
2019-11-12 18:00:00 13.3 18 Oeste 37 Oeste 2.8 966.4 -2.5 99
2019-11-12 17:00:00 12.9 20 Sudoeste 37 Sudoeste 2.5 967 -3.3 100
2019-11-12 16:00:00 11.5 23 Sudoeste 45 Sudoeste 3.3 967.4 -4.8 100
2019-11-12 15:00:00 10.5 22 Sudoeste 35 Sudoeste 2.7 968.9 -4.5 100
2019-11-12 14:00:00 9.8 21 Sur 32 Sur 0.8 970.3 -3.8 100
2019-11-12 13:00:00 9.2 18 Sur 30 Sur 0.4 972.2 -2.8 100
2019-11-12 12:00:00 8.8 18 Sur 28 Sudoeste 0 973.4 -1.8 100
2019-11-12 11:00:00 8.2 13 Sur 18 Sur 0.8 974.1 -1 100
2019-11-12 10:00:00 7.4 12 Sur 17 Sur 0.4 975 -0.7 100
2019-11-12 09:00:00 7.1 12 Sur 17 Sur 0 975.2 -0.8 100
2019-11-12 08:00:00 7.3 10 Sur 13 Sur 0 975.1 -1.2 99
2019-11-12 07:00:00 7.6 3 Sudoeste 15 Sudoeste 0 975.7 -1.3 96
2019-11-12 06:00:00 7.4 10 Sur 15 Sur 0 976 -1.7 97
2019-11-12 05:00:00 7.1 10 Sur 15 Sudoeste 0 976.3 -- 100
2019-11-12 04:00:00 7.1 4 Sudoeste 9 Sur 0 977 -1.7 100
2019-11-12 03:00:00 6.9 0 Calma 9 Sur 0 977.7 -1.2 100
2019-11-12 02:00:00 -- -- -- -- -- -- -- -- --
2019-11-12 01:00:00 6.8 3 Sur 8 Sudeste 0 978.7 -0.5 99
2019-11-12 00:00:00 7.4 0 Calma 8 Oeste 0 978.9 -0.7 97